createdAt,value
2023-05-17T00:00:20.929Z,706.00
2023-05-17T00:01:21.052Z,705.00
2023-05-17T00:02:21.063Z,705.00
2023-05-17T00:03:21.096Z,706.00
2023-05-17T00:04:21.223Z,705.00
2023-05-17T00:05:21.223Z,706.00
2023-05-17T00:06:21.305Z,709.00
2023-05-17T00:07:21.350Z,707.00
2023-05-17T00:08:21.436Z,709.00
2023-05-17T00:09:21.477Z,709.00
2023-05-17T00:10:21.518Z,709.00
2023-05-17T00:11:21.546Z,708.00
2023-05-17T00:12:21.629Z,707.00
2023-05-17T00:13:21.678Z,706.00
2023-05-17T00:14:21.732Z,705.00
2023-05-17T00:15:21.815Z,705.00
2023-05-17T00:16:21.896Z,706.00
2023-05-17T00:17:22.030Z,703.00
2023-05-17T00:18:22.080Z,702.00
2023-05-17T00:19:22.162Z,704.00
2023-05-17T00:20:22.127Z,706.00
2023-05-17T00:21:22.174Z,706.00
2023-05-17T00:22:22.213Z,706.00
2023-05-17T00:23:22.268Z,706.00
2023-05-17T00:24:22.327Z,703.00
2023-05-17T00:25:22.389Z,704.00
2023-05-17T00:26:22.443Z,705.00
2023-05-17T00:27:22.514Z,702.00
2023-05-17T00:28:22.537Z,702.00
2023-05-17T00:29:22.593Z,700.00
2023-05-17T00:30:22.654Z,701.00
2023-05-17T00:31:22.690Z,698.00
2023-05-17T00:32:22.808Z,696.00
2023-05-17T00:33:22.895Z,696.00
2023-05-17T00:34:22.864Z,699.00
2023-05-17T00:35:23.004Z,698.00
2023-05-17T00:36:22.916Z,696.00
2023-05-17T00:37:23.006Z,695.00
2023-05-17T00:38:23.091Z,690.00
2023-05-17T00:39:23.073Z,690.00
2023-05-17T00:40:23.141Z,691.00
2023-05-17T00:41:23.204Z,690.00
2023-05-17T00:42:23.239Z,690.00
2023-05-17T00:43:23.321Z,692.00
2023-05-17T00:44:23.371Z,691.00
2023-05-17T00:45:23.391Z,692.00
2023-05-17T00:46:23.460Z,693.00
2023-05-17T00:47:23.574Z,692.00
2023-05-17T00:48:23.657Z,690.00
2023-05-17T00:49:23.741Z,695.00
2023-05-17T00:50:23.714Z,695.00
2023-05-17T00:51:23.733Z,698.00
2023-05-17T00:52:23.789Z,700.00
2023-05-17T00:53:23.852Z,701.00
2023-05-17T00:54:23.898Z,701.00
2023-05-17T00:55:24.022Z,702.00
2023-05-17T00:56:23.999Z,700.00
2023-05-17T00:57:24.117Z,702.00
2023-05-17T00:58:24.159Z,702.00
2023-05-17T00:59:24.224Z,704.00
2023-05-17T01:00:24.271Z,702.00
2023-05-17T01:01:24.344Z,701.00
2023-05-17T01:02:24.401Z,700.00
2023-05-17T01:03:24.509Z,699.00
2023-05-17T01:04:24.543Z,696.00
2023-05-17T01:05:24.604Z,695.00
2023-05-17T01:06:24.624Z,692.00
2023-05-17T01:07:24.664Z,691.00
2023-05-17T01:08:24.739Z,691.00
2023-05-17T01:09:24.772Z,689.00
2023-05-17T01:10:24.858Z,689.00
2023-05-17T01:11:24.914Z,690.00
2023-05-17T01:12:24.979Z,688.00
2023-05-17T01:13:25.053Z,686.00
2023-05-17T01:14:25.111Z,687.00
2023-05-17T01:15:25.167Z,688.00
2023-05-17T01:16:25.203Z,689.00
2023-05-17T01:17:25.310Z,687.00
2023-05-17T01:18:25.412Z,689.00
2023-05-17T01:19:25.453Z,688.00
2023-05-17T01:20:25.435Z,688.00
2023-05-17T01:21:25.606Z,690.00
2023-05-17T01:22:25.512Z,689.00
2023-05-17T01:23:25.574Z,687.00
2023-05-17T01:24:25.632Z,687.00
2023-05-17T01:25:25.762Z,687.00
2023-05-17T01:26:25.733Z,686.00
2023-05-17T01:27:25.809Z,686.00
2023-05-17T01:28:25.840Z,685.00
2023-05-17T01:29:25.906Z,685.00
2023-05-17T01:30:25.944Z,686.00
2023-05-17T01:31:25.952Z,689.00
2023-05-17T01:32:26.092Z,687.00
2023-05-17T01:33:26.090Z,687.00
2023-05-17T01:34:26.129Z,688.00
2023-05-17T01:35:26.318Z,688.00
2023-05-17T01:36:26.223Z,689.00
2023-05-17T01:37:26.352Z,690.00
2023-05-17T01:38:26.348Z,686.00
2023-05-17T01:39:26.380Z,686.00
2023-05-17T01:40:26.468Z,687.00
2023-05-17T01:41:26.499Z,684.00
2023-05-17T01:42:26.537Z,682.00
2023-05-17T01:43:26.549Z,679.00
2023-05-17T01:44:26.587Z,678.00
2023-05-17T01:45:26.947Z,678.00
2023-05-17T01:46:27.512Z,678.00
2023-05-17T01:47:26.776Z,680.00
2023-05-17T01:48:26.830Z,681.00
2023-05-17T01:49:26.893Z,680.00
2023-05-17T01:50:26.931Z,683.00
2023-05-17T01:51:26.998Z,684.00
2023-05-17T01:52:27.052Z,687.00
2023-05-17T01:53:27.186Z,686.00
2023-05-17T01:54:27.210Z,686.00
2023-05-17T01:55:27.371Z,685.00
2023-05-17T01:56:27.304Z,684.00
2023-05-17T01:57:27.366Z,681.00
2023-05-17T01:58:27.427Z,678.00
2023-05-17T01:59:27.484Z,676.00
2023-05-17T02:00:27.552Z,676.00
2023-05-17T02:01:27.585Z,676.00
2023-05-17T02:02:27.718Z,676.00
2023-05-17T02:03:27.753Z,676.00
2023-05-17T02:04:27.866Z,673.00
2023-05-17T02:05:28.008Z,676.00
2023-05-17T02:06:27.852Z,676.00
2023-05-17T02:07:27.999Z,677.00
2023-05-17T02:08:27.956Z,676.00
2023-05-17T02:09:28.595Z,673.00
2023-05-17T02:10:28.062Z,670.00
2023-05-17T02:11:28.109Z,669.00
2023-05-17T02:12:28.150Z,669.00
2023-05-17T02:13:28.990Z,667.00
2023-05-17T02:14:28.218Z,670.00
2023-05-17T02:15:28.404Z,670.00
2023-05-17T02:16:28.276Z,671.00
2023-05-17T02:17:28.419Z,673.00
2023-05-17T02:18:28.513Z,673.00
2023-05-17T02:19:28.481Z,676.00
2023-05-17T02:20:28.473Z,673.00
2023-05-17T02:21:28.552Z,675.00
2023-05-17T02:22:28.609Z,675.00
2023-05-17T02:23:28.634Z,675.00
2023-05-17T02:24:28.745Z,674.00
2023-05-17T02:25:28.947Z,675.00
2023-05-17T02:26:28.784Z,673.00
2023-05-17T02:27:28.831Z,667.00
2023-05-17T02:28:28.877Z,667.00
2023-05-17T02:29:28.939Z,668.00
2023-05-17T02:30:28.989Z,668.00
2023-05-17T02:31:29.025Z,665.00
2023-05-17T02:32:29.136Z,664.00
2023-05-17T02:33:29.209Z,664.00
2023-05-17T02:34:29.144Z,667.00
2023-05-17T02:35:29.347Z,669.00
2023-05-17T02:36:29.215Z,670.00
2023-05-17T02:37:29.273Z,669.00
2023-05-17T02:38:29.288Z,671.00
2023-05-17T02:39:29.357Z,668.00
2023-05-17T02:40:29.443Z,667.00
2023-05-17T02:41:29.519Z,667.00
2023-05-17T02:42:29.550Z,663.00
2023-05-17T02:43:29.515Z,662.00
2023-05-17T02:44:29.553Z,664.00
2023-05-17T02:45:29.817Z,667.00
2023-05-17T02:46:29.689Z,668.00
2023-05-17T02:47:29.774Z,666.00
2023-05-17T02:48:29.757Z,666.00
2023-05-17T02:49:29.811Z,667.00
2023-05-17T02:50:29.887Z,667.00
2023-05-17T02:51:29.927Z,664.00
2023-05-17T02:52:29.979Z,664.00
2023-05-17T02:53:30.059Z,663.00
2023-05-17T02:54:30.133Z,662.00
2023-05-17T02:55:30.281Z,663.00
2023-05-17T02:56:30.143Z,663.00
2023-05-17T02:57:30.229Z,663.00
2023-05-17T02:58:30.202Z,663.00
2023-05-17T02:59:30.282Z,662.00
2023-05-17T03:00:30.325Z,665.00
2023-05-17T03:01:30.387Z,666.00
2023-05-17T03:02:30.506Z,662.00
2023-05-17T03:03:30.666Z,662.00
2023-05-17T03:04:30.547Z,661.00
2023-05-17T03:05:30.685Z,661.00
2023-05-17T03:06:30.624Z,661.00
2023-05-17T03:07:30.656Z,662.00
2023-05-17T03:08:30.712Z,665.00
2023-05-17T03:09:30.719Z,666.00
2023-05-17T03:10:30.783Z,664.00
2023-05-17T03:11:30.827Z,663.00
2023-05-17T03:12:30.840Z,662.00
2023-05-17T03:13:30.979Z,659.00
2023-05-17T03:14:30.932Z,661.00
2023-05-17T03:15:31.111Z,663.00
2023-05-17T03:16:31.022Z,665.00
2023-05-17T03:17:31.140Z,663.00
2023-05-17T03:18:31.190Z,661.00
2023-05-17T03:19:31.218Z,659.00
2023-05-17T03:20:31.221Z,656.00
2023-05-17T03:21:31.224Z,658.00
2023-05-17T03:22:31.270Z,662.00
2023-05-17T03:23:31.326Z,663.00
2023-05-17T03:24:31.334Z,661.00
2023-05-17T03:25:31.457Z,663.00
2023-05-17T03:26:31.431Z,661.00
2023-05-17T03:27:31.529Z,661.00
2023-05-17T03:28:31.526Z,660.00
2023-05-17T03:29:31.618Z,658.00
2023-05-17T03:30:31.734Z,659.00
2023-05-17T03:31:31.576Z,660.00
2023-05-17T03:32:31.681Z,659.00
2023-05-17T03:33:31.696Z,659.00
2023-05-17T03:34:31.626Z,659.00
2023-05-17T03:35:31.682Z,657.00
2023-05-17T03:36:31.643Z,656.00
2023-05-17T03:37:31.684Z,653.00
2023-05-17T03:38:31.680Z,653.00
2023-05-17T03:39:31.697Z,650.00
2023-05-17T03:40:31.736Z,649.00
2023-05-17T03:41:31.734Z,645.00
2023-05-17T03:42:31.776Z,647.00
2023-05-17T03:43:31.777Z,646.00
2023-05-17T03:44:31.825Z,648.00
2023-05-17T03:45:31.939Z,652.00
2023-05-17T03:46:31.919Z,650.00
2023-05-17T03:47:31.998Z,652.00
2023-05-17T03:48:33.148Z,651.00
2023-05-17T03:49:32.017Z,648.00
2023-05-17T03:50:31.993Z,644.00
2023-05-17T03:51:32.065Z,644.00
2023-05-17T03:52:31.990Z,644.00
2023-05-17T03:53:31.962Z,643.00
2023-05-17T03:54:31.972Z,644.00
2023-05-17T03:55:31.953Z,644.00
2023-05-17T03:56:31.977Z,646.00
2023-05-17T03:57:31.930Z,647.00
2023-05-17T03:58:31.955Z,648.00
2023-05-17T03:59:31.946Z,650.00
2023-05-17T04:00:31.922Z,653.00
2023-05-17T04:01:31.923Z,651.00
2023-05-17T04:02:31.941Z,652.00
2023-05-17T04:03:31.975Z,652.00
2023-05-17T04:04:31.900Z,653.00
2023-05-17T04:05:31.891Z,653.00
2023-05-17T04:06:31.942Z,654.00
2023-05-17T04:07:31.879Z,654.00
2023-05-17T04:08:31.878Z,653.00
2023-05-17T04:09:31.888Z,652.00
2023-05-17T04:10:31.879Z,653.00
2023-05-17T04:11:31.863Z,652.00
2023-05-17T04:12:31.839Z,648.00
2023-05-17T04:13:31.863Z,645.00
2023-05-17T04:14:31.883Z,649.00
2023-05-17T04:15:31.852Z,649.00
2023-05-17T04:16:31.841Z,646.00
2023-05-17T04:17:31.972Z,646.00
2023-05-17T04:18:31.876Z,650.00
2023-05-17T04:19:31.901Z,651.00
2023-05-17T04:20:31.780Z,649.00
2023-05-17T04:21:31.790Z,649.00
2023-05-17T04:22:31.827Z,650.00
2023-05-17T04:23:31.785Z,652.00
2023-05-17T04:24:31.899Z,650.00
2023-05-17T04:25:31.778Z,645.00
2023-05-17T04:26:31.750Z,645.00
2023-05-17T04:27:31.763Z,647.00
2023-05-17T04:28:31.742Z,645.00
2023-05-17T04:29:31.801Z,644.00
2023-05-17T04:30:31.725Z,644.00
2023-05-17T04:31:31.725Z,644.00
2023-05-17T04:32:31.726Z,645.00
2023-05-17T04:33:31.832Z,645.00
2023-05-17T04:34:31.689Z,646.00
2023-05-17T04:35:31.693Z,645.00
2023-05-17T04:36:31.689Z,643.00
2023-05-17T04:37:31.686Z,643.00
2023-05-17T04:38:31.685Z,640.00
2023-05-17T04:39:31.690Z,639.00
2023-05-17T04:40:31.704Z,640.00
2023-05-17T04:41:31.669Z,643.00
2023-05-17T04:42:31.707Z,643.00
2023-05-17T04:43:31.674Z,639.00
2023-05-17T04:44:31.661Z,639.00
2023-05-17T04:45:31.653Z,640.00
2023-05-17T04:46:31.634Z,639.00
2023-05-17T04:47:32.639Z,637.00
2023-05-17T04:48:31.685Z,635.00
2023-05-17T04:49:31.688Z,633.00
2023-05-17T04:50:31.615Z,628.00
2023-05-17T04:51:31.600Z,630.00
2023-05-17T04:52:31.605Z,627.00
2023-05-17T04:53:31.623Z,627.00
2023-05-17T04:54:31.657Z,627.00
2023-05-17T04:55:31.733Z,629.00
2023-05-17T04:56:31.724Z,630.00
2023-05-17T04:57:31.763Z,629.00
2023-05-17T04:58:31.761Z,628.00
2023-05-17T04:59:31.795Z,625.00
2023-05-17T05:00:31.818Z,621.00
2023-05-17T05:01:31.835Z,619.00
2023-05-17T05:02:31.918Z,621.00
2023-05-17T05:03:31.938Z,619.00
2023-05-17T05:04:31.953Z,620.00
2023-05-17T05:05:32.051Z,621.00
2023-05-17T05:06:31.962Z,619.00
2023-05-17T05:07:31.972Z,621.00
2023-05-17T05:08:31.988Z,619.00
2023-05-17T05:09:31.978Z,619.00
2023-05-17T05:10:32.021Z,619.00
2023-05-17T05:11:32.005Z,614.00
2023-05-17T05:12:31.995Z,612.00
2023-05-17T05:13:32.002Z,612.00
2023-05-17T05:14:31.986Z,614.00
2023-05-17T05:15:32.038Z,613.00
2023-05-17T05:16:32.014Z,616.00
2023-05-17T05:17:32.148Z,616.00
2023-05-17T05:18:32.156Z,616.00
2023-05-17T05:19:32.212Z,615.00
2023-05-17T05:20:32.148Z,616.00
2023-05-17T05:21:32.451Z,612.00
2023-05-17T05:22:32.241Z,611.00
2023-05-17T05:23:32.184Z,609.00
2023-05-17T05:24:32.301Z,607.00
2023-05-17T05:25:32.256Z,606.00
2023-05-17T05:26:32.291Z,606.00
2023-05-17T05:27:32.347Z,607.00
2023-05-17T05:28:32.368Z,602.00
2023-05-17T05:29:32.432Z,602.00
2023-05-17T05:30:32.428Z,600.00
2023-05-17T05:31:32.451Z,596.00
2023-05-17T05:32:32.495Z,598.00
2023-05-17T05:33:32.681Z,602.00
2023-05-17T05:34:32.632Z,602.00
2023-05-17T05:35:32.582Z,601.00
2023-05-17T05:36:32.563Z,599.00
2023-05-17T05:37:32.684Z,600.00
2023-05-17T05:38:32.603Z,599.00
2023-05-17T05:39:32.622Z,598.00
2023-05-17T05:40:32.843Z,598.00
2023-05-17T05:41:32.671Z,598.00
2023-05-17T05:42:32.728Z,597.00
2023-05-17T05:43:32.772Z,596.00
2023-05-17T05:44:32.776Z,599.00
2023-05-17T05:45:32.807Z,596.00
2023-05-17T05:46:32.819Z,597.00
2023-05-17T05:47:32.847Z,598.00
2023-05-17T05:48:32.918Z,597.00
2023-05-17T05:49:32.907Z,597.00
2023-05-17T05:50:32.937Z,598.00
2023-05-17T05:51:33.001Z,598.00
2023-05-17T05:52:32.994Z,596.00
2023-05-17T05:53:33.079Z,591.00
2023-05-17T05:54:33.062Z,590.00
2023-05-17T05:55:33.075Z,589.00
2023-05-17T05:56:33.145Z,587.00
2023-05-17T05:57:33.185Z,587.00
2023-05-17T05:58:33.191Z,588.00
2023-05-17T05:59:33.208Z,590.00
2023-05-17T06:00:33.248Z,593.00
2023-05-17T06:01:33.240Z,592.00
2023-05-17T06:02:33.331Z,588.00
2023-05-17T06:03:33.310Z,588.00
2023-05-17T06:04:44.431Z,586.00
2023-05-17T06:05:34.408Z,588.00
2023-05-17T06:06:33.415Z,589.00
2023-05-17T06:07:33.316Z,591.00
2023-05-17T06:08:33.323Z,592.00
2023-05-17T06:09:33.386Z,594.00
2023-05-17T06:10:33.438Z,595.00
2023-05-17T06:11:33.318Z,593.00
2023-05-17T06:12:33.290Z,592.00
2023-05-17T06:13:33.295Z,593.00
2023-05-17T06:14:33.281Z,591.00
2023-05-17T06:15:33.309Z,592.00
2023-05-17T06:16:33.341Z,594.00
2023-05-17T06:17:33.369Z,593.00
2023-05-17T06:18:33.460Z,595.00
2023-05-17T06:19:33.550Z,595.00
2023-05-17T06:20:33.458Z,599.00
2023-05-17T06:21:33.538Z,598.00
2023-05-17T06:22:33.560Z,599.00
2023-05-17T06:23:33.531Z,599.00
2023-05-17T06:24:33.548Z,600.00
2023-05-17T06:25:33.622Z,600.00
2023-05-17T06:26:33.522Z,600.00
2023-05-17T06:27:33.527Z,600.00
2023-05-17T06:28:33.518Z,601.00
2023-05-17T06:29:33.509Z,601.00
2023-05-17T06:30:33.517Z,602.00
2023-05-17T06:31:33.500Z,598.00
2023-05-17T06:32:33.584Z,600.00
2023-05-17T06:33:33.660Z,599.00
2023-05-17T06:34:33.619Z,601.00
2023-05-17T06:35:44.123Z,605.00
2023-05-17T06:36:35.833Z,607.00
2023-05-17T06:37:33.660Z,609.00
2023-05-17T06:38:33.659Z,611.00
2023-05-17T06:39:33.647Z,615.00
2023-05-17T06:40:33.823Z,617.00
2023-05-17T06:41:33.746Z,620.00
2023-05-17T06:42:33.600Z,619.00
2023-05-17T06:43:35.127Z,621.00
2023-05-17T06:44:33.583Z,622.00
2023-05-17T06:45:33.631Z,622.00
2023-05-17T06:46:33.585Z,621.00
2023-05-17T06:47:33.677Z,621.00
2023-05-17T06:48:33.682Z,621.00
2023-05-17T06:49:33.564Z,620.00
2023-05-17T06:50:33.631Z,622.00
2023-05-17T06:51:33.544Z,622.00
2023-05-17T06:52:33.585Z,621.00
2023-05-17T06:53:33.558Z,624.00
2023-05-17T06:54:33.560Z,624.00
2023-05-17T06:55:33.554Z,629.00
2023-05-17T06:56:33.548Z,628.00
2023-05-17T06:57:33.540Z,631.00
2023-05-17T06:58:33.545Z,633.00
2023-05-17T06:59:33.515Z,631.00
2023-05-17T07:00:33.743Z,635.00
2023-05-17T07:01:33.484Z,638.00
2023-05-17T07:02:34.616Z,645.00
2023-05-17T07:03:33.545Z,649.00
2023-05-17T07:04:33.550Z,653.00
2023-05-17T07:05:33.711Z,660.00
2023-05-17T07:06:33.479Z,667.00
2023-05-17T07:07:33.442Z,667.00
2023-05-17T07:08:33.464Z,667.00
2023-05-17T07:09:33.459Z,669.00
2023-05-17T07:10:33.432Z,671.00
2023-05-17T07:11:33.447Z,673.00
2023-05-17T07:12:33.440Z,672.00
2023-05-17T07:13:34.152Z,677.00
2023-05-17T07:14:33.422Z,697.00
2023-05-17T07:15:33.413Z,705.00
2023-05-17T07:16:33.429Z,705.00
2023-05-17T07:17:33.429Z,701.00
2023-05-17T07:18:40.546Z,698.00
2023-05-17T07:19:33.481Z,696.00
2023-05-17T07:20:33.365Z,697.00
2023-05-17T07:21:33.354Z,698.00
2023-05-17T07:22:33.379Z,695.00
2023-05-17T07:23:33.417Z,695.00
2023-05-17T07:24:33.348Z,691.00
2023-05-17T07:25:33.355Z,685.00
2023-05-17T07:26:33.342Z,674.00
2023-05-17T07:27:33.314Z,664.00
2023-05-17T07:28:33.302Z,660.00
2023-05-17T07:29:33.362Z,652.00
2023-05-17T07:30:33.292Z,648.00
2023-05-17T07:31:33.277Z,644.00
2023-05-17T07:32:33.294Z,642.00
2023-05-17T07:33:33.266Z,647.00
2023-05-17T07:34:33.307Z,660.00
2023-05-17T07:35:33.273Z,679.00
2023-05-17T07:36:33.354Z,681.00
2023-05-17T07:37:33.269Z,683.00
2023-05-17T07:38:33.262Z,685.00
2023-05-17T07:39:33.237Z,693.00
2023-05-17T07:40:33.229Z,709.00
2023-05-17T07:41:33.237Z,716.00
2023-05-17T07:42:33.194Z,732.00
2023-05-17T07:43:33.225Z,754.00
2023-05-17T07:44:33.193Z,805.00
2023-05-17T07:45:33.315Z,821.00
2023-05-17T07:46:33.258Z,890.00
2023-05-17T07:47:33.267Z,903.00
2023-05-17T07:48:33.252Z,902.00
2023-05-17T07:49:33.172Z,905.00
2023-05-17T07:50:33.204Z,907.00
2023-05-17T07:51:33.171Z,914.00
2023-05-17T07:52:33.138Z,914.00
2023-05-17T07:53:33.127Z,916.00
2023-05-17T07:54:33.132Z,914.00
2023-05-17T07:55:33.132Z,913.00
2023-05-17T07:56:33.205Z,912.00
2023-05-17T07:57:33.268Z,909.00
2023-05-17T07:58:33.356Z,909.00
2023-05-17T07:59:33.389Z,903.00
2023-05-17T08:00:33.429Z,901.00
2023-05-17T08:01:33.735Z,899.00
2023-05-17T08:02:33.576Z,892.00
2023-05-17T08:03:33.609Z,889.00
2023-05-17T08:04:33.699Z,887.00
2023-05-17T08:05:33.716Z,885.00
2023-05-17T08:06:33.986Z,882.00
2023-05-17T08:07:33.822Z,881.00
2023-05-17T08:08:33.917Z,879.00
2023-05-17T08:09:34.659Z,880.00
2023-05-17T08:10:34.061Z,875.00
2023-05-17T08:11:35.219Z,871.00
2023-05-17T08:12:34.156Z,872.00
2023-05-17T08:13:34.459Z,870.00
2023-05-17T08:14:34.284Z,869.00
2023-05-17T08:15:34.346Z,869.00
2023-05-17T08:16:34.403Z,867.00
2023-05-17T08:17:34.589Z,867.00
2023-05-17T08:18:34.633Z,862.00
2023-05-17T08:19:34.735Z,860.00
2023-05-17T08:20:34.665Z,859.00
2023-05-17T08:21:34.676Z,858.00
2023-05-17T08:22:34.771Z,855.00
2023-05-17T08:23:34.797Z,853.00
2023-05-17T08:24:35.013Z,850.00
2023-05-17T08:25:34.879Z,848.00
2023-05-17T08:26:34.929Z,846.00
2023-05-17T08:27:35.005Z,845.00
2023-05-17T08:28:35.072Z,842.00
2023-05-17T08:29:36.111Z,840.00
2023-05-17T08:30:35.174Z,840.00
2023-05-17T08:31:35.245Z,842.00
2023-05-17T08:32:35.331Z,841.00
2023-05-17T08:33:35.777Z,840.00
2023-05-17T08:34:35.393Z,841.00
2023-05-17T08:35:35.460Z,838.00
2023-05-17T08:36:35.550Z,835.00
2023-05-17T08:37:35.581Z,850.00
2023-05-17T08:38:35.592Z,907.00
2023-05-17T08:39:35.684Z,956.00
2023-05-17T08:40:35.780Z,961.00
2023-05-17T08:41:35.736Z,973.00
2023-05-17T08:42:35.799Z,982.00
2023-05-17T08:43:35.853Z,997.00
2023-05-17T08:44:35.888Z,1037.00
2023-05-17T08:45:35.926Z,1058.00
2023-05-17T08:46:36.004Z,1083.00
2023-05-17T08:47:36.127Z,1109.00
2023-05-17T08:48:36.091Z,1165.00
2023-05-17T08:49:36.072Z,1189.00
2023-05-17T08:50:36.103Z,1217.00
2023-05-17T08:51:36.126Z,1280.00
2023-05-17T08:52:36.220Z,1156.00
2023-05-17T08:53:36.242Z,1244.00
2023-05-17T08:54:36.285Z,1202.00
2023-05-17T08:55:36.300Z,1079.00
2023-05-17T08:56:36.325Z,1075.00
2023-05-17T08:57:36.319Z,1089.00
2023-05-17T08:58:48.159Z,1091.00
2023-05-17T08:59:37.311Z,1078.00
2023-05-17T09:00:36.314Z,1069.00
2023-05-17T09:01:36.293Z,1063.00
2023-05-17T09:02:36.389Z,1059.00
2023-05-17T09:03:36.395Z,1051.00
2023-05-17T09:04:36.340Z,1043.00
2023-05-17T09:05:36.330Z,1037.00
2023-05-17T09:06:36.283Z,1041.00
2023-05-17T09:07:36.250Z,1038.00
2023-05-17T09:08:36.268Z,1038.00
2023-05-17T09:09:36.302Z,1044.00
2023-05-17T09:10:36.371Z,1037.00
2023-05-17T09:11:36.396Z,1029.00
2023-05-17T09:12:36.484Z,1035.00
2023-05-17T09:13:36.568Z,1026.00
2023-05-17T09:14:36.581Z,992.00
2023-05-17T09:15:36.658Z,1037.00
2023-05-17T09:16:36.722Z,1088.00
2023-05-17T09:17:36.780Z,1094.00
2023-05-17T09:18:36.912Z,1107.00
2023-05-17T09:19:36.985Z,1113.00
2023-05-17T09:20:36.946Z,1110.00
2023-05-17T09:21:37.075Z,1112.00
2023-05-17T09:22:37.014Z,1119.00
2023-05-17T09:23:37.060Z,1127.00
2023-05-17T09:24:37.078Z,1136.00
2023-05-17T09:25:37.125Z,1142.00
2023-05-17T09:26:37.129Z,1152.00
2023-05-17T09:27:37.195Z,1163.00
2023-05-17T09:28:37.207Z,1176.00
2023-05-17T09:29:37.250Z,1184.00
2023-05-17T09:30:37.254Z,1196.00
2023-05-17T09:31:37.280Z,1218.00
2023-05-17T09:32:37.319Z,1237.00
2023-05-17T09:33:37.380Z,1241.00
2023-05-17T09:34:37.291Z,1248.00
2023-05-17T09:35:37.336Z,1261.00
2023-05-17T09:36:37.327Z,1271.00
2023-05-17T09:37:37.341Z,1273.00
2023-05-17T09:38:37.350Z,1280.00
2023-05-17T09:39:37.377Z,1292.00
2023-05-17T09:40:37.352Z,1301.00
2023-05-17T09:41:37.390Z,1308.00
2023-05-17T09:42:37.419Z,1321.00
2023-05-17T09:43:37.395Z,1405.00
2023-05-17T09:44:37.347Z,1439.00
2023-05-17T09:45:37.370Z,1517.00
2023-05-17T09:46:37.402Z,1546.00
2023-05-17T09:47:37.577Z,1561.00
2023-05-17T09:48:37.524Z,1586.00
2023-05-17T09:49:37.414Z,1607.00
2023-05-17T09:50:37.418Z,1636.00
2023-05-17T09:51:37.432Z,1660.00
2023-05-17T09:52:37.516Z,1674.00
2023-05-17T09:53:37.567Z,1726.00
2023-05-17T09:54:37.571Z,1747.00
2023-05-17T09:55:39.356Z,1752.00
2023-05-17T09:56:37.638Z,1787.00
2023-05-17T09:57:37.711Z,1792.00
2023-05-17T09:58:37.806Z,1802.00
2023-05-17T09:59:37.852Z,1817.00
2023-05-17T10:00:37.893Z,1835.00
2023-05-17T10:01:37.930Z,1855.00
2023-05-17T10:02:38.074Z,1869.00
2023-05-17T10:03:38.204Z,1883.00
2023-05-17T10:04:38.195Z,1925.00
2023-05-17T10:05:38.320Z,1955.00
2023-05-17T10:06:45.151Z,1982.00
2023-05-17T10:07:39.235Z,1998.00
2023-05-17T10:08:38.208Z,2010.00
2023-05-17T10:09:38.300Z,2024.00
2023-05-17T10:10:38.231Z,2049.00
2023-05-17T10:11:38.214Z,2060.00
2023-05-17T10:12:38.234Z,2076.00
2023-05-17T10:13:38.198Z,2088.00
2023-05-17T10:14:38.263Z,2106.00
2023-05-17T10:15:38.174Z,2113.00
2023-05-17T10:16:38.185Z,2121.00
2023-05-17T10:17:38.168Z,2133.00
2023-05-17T10:18:38.266Z,2161.00
2023-05-17T10:19:38.230Z,2165.00
2023-05-17T10:20:38.185Z,2193.00
2023-05-17T10:21:38.226Z,2211.00
2023-05-17T10:22:38.277Z,2229.00
2023-05-17T10:23:38.301Z,2242.00
2023-05-17T10:24:38.365Z,2264.00
2023-05-17T10:25:38.497Z,2280.00
2023-05-17T10:26:38.406Z,2287.00
2023-05-17T10:27:38.458Z,2296.00
2023-05-17T10:28:38.470Z,2311.00
2023-05-17T10:29:38.501Z,2323.00
2023-05-17T10:30:38.548Z,2331.00
2023-05-17T10:31:38.577Z,2339.00
2023-05-17T10:32:38.668Z,2359.00
2023-05-17T10:33:38.718Z,2377.00
2023-05-17T10:34:38.640Z,2381.00
2023-05-17T10:35:39.461Z,2397.00
2023-05-17T10:36:38.759Z,2406.00
2023-05-17T10:37:38.755Z,2413.00
2023-05-17T10:38:42.599Z,2421.00
2023-05-17T10:39:39.119Z,2419.00
2023-05-17T10:40:38.727Z,2482.00
2023-05-17T10:41:38.714Z,2501.00
2023-05-17T10:42:38.734Z,2555.00
2023-05-17T10:43:38.768Z,2574.00
2023-05-17T10:44:38.679Z,2590.00
2023-05-17T10:45:38.694Z,2597.00
2023-05-17T10:46:38.676Z,2604.00
2023-05-17T10:47:38.715Z,2603.00
2023-05-17T10:48:38.719Z,2613.00
2023-05-17T10:49:38.643Z,2634.00
2023-05-17T10:50:41.028Z,2650.00
2023-05-17T10:51:39.640Z,2674.00
2023-05-17T10:52:38.634Z,2682.00
2023-05-17T10:53:38.617Z,2693.00
2023-05-17T10:54:38.663Z,2704.00
2023-05-17T10:55:38.640Z,2716.00
2023-05-17T10:56:38.622Z,2724.00
2023-05-17T10:57:50.625Z,2730.00
2023-05-17T10:58:39.601Z,2734.00
2023-05-17T10:59:38.601Z,2744.00
2023-05-17T11:00:38.555Z,2782.00
2023-05-17T11:01:39.193Z,2793.00
2023-05-17T11:02:38.590Z,2782.00
2023-05-17T11:03:38.575Z,2771.00
2023-05-17T11:04:38.613Z,2815.00
2023-05-17T11:05:38.684Z,2840.00
2023-05-17T11:06:38.574Z,2864.00
2023-05-17T11:07:38.512Z,2879.00
2023-05-17T11:08:38.515Z,2884.00
2023-05-17T11:09:38.554Z,2892.00
2023-05-17T11:10:38.550Z,2884.00
2023-05-17T11:11:38.487Z,2917.00
2023-05-17T11:12:40.523Z,2892.00
2023-05-17T11:13:38.527Z,2700.00
2023-05-17T11:14:38.489Z,2770.00
2023-05-17T11:15:38.493Z,2797.00
2023-05-17T11:16:38.502Z,2797.00
2023-05-17T11:17:38.484Z,2667.00
2023-05-17T11:18:39.809Z,2610.00
2023-05-17T11:19:38.541Z,2429.00
2023-05-17T11:20:38.877Z,2485.00
2023-05-17T11:21:38.468Z,2510.00
2023-05-17T11:22:38.437Z,2326.00
2023-05-17T11:23:38.413Z,2332.00
2023-05-17T11:24:38.420Z,2007.00
2023-05-17T11:25:38.416Z,1696.00
2023-05-17T11:26:38.426Z,1887.00
2023-05-17T11:27:38.404Z,1852.00
2023-05-17T11:28:38.422Z,1688.00
2023-05-17T11:29:39.598Z,1778.00
2023-05-17T11:30:38.389Z,1757.00
2023-05-17T11:31:38.403Z,1714.00
2023-05-17T11:32:38.415Z,1711.00
2023-05-17T11:33:38.494Z,1663.00
2023-05-17T11:34:38.426Z,1666.00
2023-05-17T11:35:38.351Z,1651.00
2023-05-17T11:36:38.331Z,1649.00
2023-05-17T11:37:38.333Z,1485.00
2023-05-17T11:38:38.343Z,1483.00
2023-05-17T11:39:38.304Z,1350.00
2023-05-17T11:40:38.297Z,1337.00
2023-05-17T11:41:38.308Z,1335.00
2023-05-17T11:42:38.364Z,1323.00
2023-05-17T11:43:38.304Z,1305.00
2023-05-17T11:44:38.279Z,1288.00
2023-05-17T11:45:38.278Z,1258.00
2023-05-17T11:46:38.298Z,1244.00
2023-05-17T11:47:38.316Z,1215.00
2023-05-17T11:48:38.335Z,1198.00
2023-05-17T11:49:38.268Z,1155.00
2023-05-17T11:50:38.254Z,1128.00
2023-05-17T11:51:38.228Z,1106.00
2023-05-17T11:52:38.237Z,1086.00
2023-05-17T11:53:38.208Z,1060.00
2023-05-17T11:54:38.183Z,1041.00
2023-05-17T11:55:38.201Z,1017.00
2023-05-17T11:56:43.704Z,960.00
2023-05-17T11:57:40.629Z,949.00
2023-05-17T11:58:38.307Z,934.00
2023-05-17T11:59:38.322Z,914.00
2023-05-17T12:00:38.358Z,887.00
2023-05-17T12:01:38.362Z,876.00
2023-05-17T12:02:38.520Z,863.00
2023-05-17T12:03:38.455Z,839.00
2023-05-17T12:04:38.631Z,804.00
2023-05-17T12:05:38.532Z,797.00
2023-05-17T12:06:38.635Z,760.00
2023-05-17T12:07:38.657Z,741.00
2023-05-17T12:08:38.759Z,723.00
2023-05-17T12:09:38.760Z,705.00
2023-05-17T12:10:38.826Z,697.00
2023-05-17T12:11:38.848Z,690.00
2023-05-17T12:12:38.934Z,672.00
2023-05-17T12:13:53.272Z,669.00
2023-05-17T12:14:38.955Z,664.00
2023-05-17T12:15:38.964Z,656.00
2023-05-17T12:16:39.008Z,648.00
2023-05-17T12:17:39.182Z,645.00
2023-05-17T12:18:39.187Z,645.00
2023-05-17T12:19:39.286Z,646.00
2023-05-17T12:20:39.197Z,649.00
2023-05-17T12:21:39.287Z,649.00
2023-05-17T12:22:39.352Z,645.00